Hancock, MI

4:46 PM EST on November 22, 2014 (GMT -0500)
Forsman Road | Change Station
CLOSE
Current Station
Personal Weather Station
Location: Hancock, MI
Elevation: 1116 ft
Nearby Weather Stations
Active Advisory: Special Statement

Elev 1116 ft 47.15 °N, 88.52 °W | Updated 11 seconds ago

Overcast
Overcast
36.3 °F
Feels Like 36 °F
N
2.0
Wind Variable Wind from WNW
Gusts 4.0 mph

Today
High -- | Low -- °F
--% Chance of Precip.
Yesterday
High -- | Low -- °F
Precip. -- in
8:07 AM 5:12 PM
New Moon, 0% visible
Pressure 29.66 in
Visibility 8.0 miles
Clouds Overcast 1500 ft
Windchill 36 °F
Dew Point 33 °F
Humidity 87%
Rainfall 0.02 in
Snow Depth Not available.
UV 0 out of 12
Pollen .10 out of 12
Air Quality Not available.
Flu Activity Not available.
SPECI KCMX 222109Z AUTO 24009KT 8SM OVC015 03/M01 A2966 RMK AO2 T00281011

More Conditions Fewer Conditions

Pressure 29.66 in
Visibility 8.0 miles
Clouds Overcast 1500 ft
Windchill 36 °F
Dew Point 33 °F
Humidity 87%
Rainfall 0.02 in
Snow Depth Not available.
UV 0 out of 12
Pollen .10 out of 12
Air Quality Not available.
Flu Activity Not available.
SPECI KCMX 222109Z AUTO 24009KT 8SM OVC015 03/M01 A2966 RMK AO2 T00281011

More Conditions Fewer Conditions

10-Day Weather Forecast

Almanac

Astronomy

Nov. 22, 2014 Rise Set
Actual Time
Civil Twilight
Nautical Twilight
Astronomical Twilight
Moon
Length of Visible Light
Length of Day
Tomorrow will be .
, % of the Moon is Illuminated

Today's Extremes

State Highs State Lows

Community

WunderPhotos

Upload Photos

1,772,914 photos uploaded!

WunderBlogs® & News

Nearby

Air Quality

  Air Quality AQ Index Pollutant
Not available.

Snow Depth

Station Depth Elevation

Earthquake Activity

City Distance Mag. Time & Date
Minimum magnitude displayed is 2.5.

Coastal Water Temperatures

Place Temperature

Nearby Weather Stations